createdAt,value
2022-10-06T00:00:57.225Z,1.57
2022-10-06T00:03:45.267Z,1.10
2022-10-06T00:06:32.188Z,1.37
2022-10-06T00:09:19.037Z,1.50
2022-10-06T00:12:06.638Z,1.40
2022-10-06T00:14:55.296Z,1.23
2022-10-06T00:17:42.501Z,1.03
2022-10-06T00:20:30.488Z,1.13
2022-10-06T00:23:18.084Z,1.20
2022-10-06T00:26:05.191Z,1.20
2022-10-06T00:28:52.249Z,1.40
2022-10-06T00:31:40.718Z,1.17
2022-10-06T00:34:27.648Z,1.00
2022-10-06T00:37:14.435Z,1.50
2022-10-06T00:40:01.514Z,1.10
2022-10-06T00:42:58.656Z,1.23
2022-10-06T00:45:50.111Z,1.40
2022-10-06T00:48:39.643Z,1.27
2022-10-06T00:51:29.891Z,1.17
2022-10-06T00:54:17.698Z,1.00
2022-10-06T00:57:05.425Z,1.40
2022-10-06T00:59:52.734Z,1.30
2022-10-06T01:02:44.885Z,1.30
2022-10-06T01:05:37.065Z,1.93
2022-10-06T01:08:25.228Z,1.37
2022-10-06T01:11:14.575Z,1.10
2022-10-06T01:14:01.420Z,1.03
2022-10-06T01:16:54.709Z,1.40
2022-10-06T01:19:49.911Z,1.10
2022-10-06T01:22:40.873Z,1.23
2022-10-06T01:25:28.346Z,1.50
2022-10-06T01:28:16.057Z,1.60
2022-10-06T01:31:04.574Z,1.50
2022-10-06T01:33:55.602Z,1.60
2022-10-06T01:36:42.808Z,1.30
2022-10-06T01:39:31.235Z,1.27
2022-10-06T01:42:18.501Z,1.57
2022-10-06T01:45:06.157Z,1.37
2022-10-06T01:47:53.349Z,1.50
2022-10-06T01:50:42.103Z,1.30
2022-10-06T01:53:29.928Z,1.20
2022-10-06T01:56:18.886Z,1.40
2022-10-06T01:59:05.644Z,1.00
2022-10-06T02:01:53.123Z,1.30
2022-10-06T02:04:40.018Z,1.57
2022-10-06T02:07:27.316Z,1.20
2022-10-06T02:10:13.996Z,1.50
2022-10-06T02:13:02.693Z,2.03
2022-10-06T02:15:49.808Z,1.70
2022-10-06T02:18:37.490Z,1.60
2022-10-06T02:21:24.725Z,1.30
2022-10-06T02:24:11.836Z,1.30
2022-10-06T02:26:59.000Z,1.53
2022-10-06T02:29:49.231Z,1.33
2022-10-06T02:32:36.752Z,1.33
2022-10-06T02:35:23.565Z,1.13
2022-10-06T02:38:11.741Z,1.47
2022-10-06T02:40:59.108Z,1.70
2022-10-06T02:43:45.990Z,1.60
2022-10-06T02:46:34.172Z,2.03
2022-10-06T02:49:21.373Z,1.47
2022-10-06T02:52:08.807Z,1.73
2022-10-06T02:54:55.876Z,1.73
2022-10-06T02:57:42.974Z,1.70
2022-10-06T03:00:29.960Z,1.50
2022-10-06T03:03:18.080Z,1.77
2022-10-06T03:06:06.286Z,1.60
2022-10-06T03:08:54.507Z,1.57
2022-10-06T03:11:43.893Z,2.00
2022-10-06T03:14:30.901Z,1.57
2022-10-06T03:17:17.894Z,2.00
2022-10-06T03:20:07.059Z,1.90
2022-10-06T03:22:54.886Z,1.80
2022-10-06T03:25:41.682Z,1.83
2022-10-06T03:28:29.133Z,1.30
2022-10-06T03:31:17.982Z,1.83
2022-10-06T03:34:05.166Z,1.77
2022-10-06T03:36:53.768Z,1.77
2022-10-06T03:39:40.412Z,2.20
2022-10-06T03:42:27.776Z,1.87
2022-10-06T03:45:14.960Z,2.13
2022-10-06T03:48:01.829Z,2.03
2022-10-06T03:50:55.755Z,2.10
2022-10-06T03:53:46.031Z,2.00
2022-10-06T03:56:34.486Z,1.83
2022-10-06T03:59:21.462Z,2.00
2022-10-06T04:02:08.433Z,1.60
2022-10-06T04:04:55.900Z,1.70
2022-10-06T04:07:42.655Z,1.83
2022-10-06T04:10:30.778Z,1.80
2022-10-06T04:13:18.046Z,1.97
2022-10-06T04:16:13.205Z,2.00
2022-10-06T04:19:02.310Z,1.83
2022-10-06T04:21:49.902Z,1.77
2022-10-06T04:24:37.311Z,2.73
2022-10-06T04:27:31.518Z,2.37
2022-10-06T04:30:18.787Z,2.60
2022-10-06T04:33:07.515Z,2.40
2022-10-06T04:36:01.458Z,2.00
2022-10-06T04:38:48.289Z,2.50
2022-10-06T04:41:36.922Z,2.20
2022-10-06T04:44:25.368Z,1.67
2022-10-06T04:47:12.265Z,1.87
2022-10-06T04:49:59.924Z,2.10
2022-10-06T04:52:47.161Z,1.90
2022-10-06T04:55:34.051Z,1.83
2022-10-06T04:58:21.022Z,1.77
2022-10-06T05:01:16.717Z,1.80
2022-10-06T05:04:06.126Z,1.80
2022-10-06T05:06:52.900Z,2.13
2022-10-06T05:09:39.638Z,2.00
2022-10-06T05:12:26.238Z,2.27
2022-10-06T05:15:13.326Z,2.10
2022-10-06T05:18:01.757Z,2.00
2022-10-06T05:20:57.323Z,2.03
2022-10-06T05:23:45.197Z,2.10
2022-10-06T05:26:33.497Z,2.83
2022-10-06T05:29:19.987Z,2.90
2022-10-06T05:32:06.943Z,2.10
2022-10-06T05:34:55.537Z,2.10
2022-10-06T05:37:42.609Z,2.60
2022-10-06T05:40:29.610Z,2.23
2022-10-06T05:43:16.689Z,2.20
2022-10-06T05:46:05.750Z,2.83
2022-10-06T05:48:54.986Z,1.80
2022-10-06T05:51:43.112Z,1.90
2022-10-06T05:54:30.247Z,1.97
2022-10-06T05:57:17.202Z,2.23
2022-10-06T06:00:04.383Z,10.67
2022-10-06T06:02:51.429Z,5.10
2022-10-06T06:05:42.465Z,5.10
2022-10-06T06:08:31.121Z,5.47
2022-10-06T06:11:18.318Z,3.90
2022-10-06T06:14:07.269Z,4.80
2022-10-06T06:16:53.473Z,4.53
2022-10-06T06:19:40.420Z,3.67
2022-10-06T06:22:27.253Z,4.00
2022-10-06T06:25:15.988Z,3.50
2022-10-06T06:28:03.130Z,4.43
2022-10-06T06:30:50.154Z,5.20
2022-10-06T06:33:38.307Z,6.70
2022-10-06T06:36:26.488Z,6.87
2022-10-06T06:39:15.307Z,5.33
2022-10-06T06:42:05.197Z,4.40
2022-10-06T06:44:52.148Z,3.00
2022-10-06T06:47:39.823Z,2.50
2022-10-06T06:50:26.488Z,2.67
2022-10-06T06:53:16.266Z,2.63
2022-10-06T06:56:04.120Z,2.90
2022-10-06T06:58:52.701Z,3.27
2022-10-06T07:01:41.436Z,3.10
2022-10-06T07:04:28.612Z,3.27
2022-10-06T07:07:15.707Z,3.00
2022-10-06T07:10:02.689Z,3.40
2022-10-06T07:12:49.597Z,2.90
2022-10-06T07:15:55.250Z,2.57
2022-10-06T07:19:00.697Z,3.20
2022-10-06T07:22:11.322Z,3.40
2022-10-06T07:25:11.484Z,3.10
2022-10-06T07:27:58.987Z,2.67
2022-10-06T07:30:47.152Z,3.83
2022-10-06T07:33:34.008Z,3.47
2022-10-06T07:36:22.482Z,3.13
2022-10-06T07:39:10.594Z,3.27
2022-10-06T07:41:57.189Z,3.20
2022-10-06T07:44:45.113Z,3.50
2022-10-06T07:47:33.386Z,4.00
2022-10-06T07:50:20.377Z,4.80
2022-10-06T07:53:09.197Z,5.10
2022-10-06T07:55:56.195Z,3.80
2022-10-06T07:58:44.656Z,3.43
2022-10-06T08:01:31.665Z,2.60
2022-10-06T08:04:20.145Z,3.93
2022-10-06T08:07:10.761Z,2.90
2022-10-06T08:09:57.706Z,3.93
2022-10-06T08:12:44.426Z,4.53
2022-10-06T08:15:31.827Z,4.90
2022-10-06T08:18:40.946Z,3.03
2022-10-06T08:21:28.983Z,2.80
2022-10-06T08:24:17.178Z,2.97
2022-10-06T08:27:38.465Z,2.93
2022-10-06T08:30:27.234Z,3.60
2022-10-06T08:33:14.315Z,2.63
2022-10-06T08:36:05.495Z,3.00
2022-10-06T08:38:54.827Z,2.92
2022-10-06T08:41:48.418Z,3.65
2022-10-06T08:44:42.012Z,3.00
2022-10-06T08:47:33.618Z,2.38
2022-10-06T08:50:22.321Z,2.25
2022-10-06T08:53:19.033Z,2.35
2022-10-06T08:56:18.348Z,2.10
2022-10-06T08:59:06.031Z,2.30
2022-10-06T09:01:55.206Z,2.40
2022-10-06T09:04:42.549Z,2.53
2022-10-06T09:07:39.715Z,2.42
2022-10-06T09:10:40.753Z,2.03
2022-10-06T09:13:33.893Z,2.08
2022-10-06T09:16:29.249Z,2.17
2022-10-06T09:19:20.757Z,2.47
2022-10-06T09:22:16.912Z,2.25
2022-10-06T09:25:16.219Z,2.03
2022-10-06T09:28:03.838Z,2.25
2022-10-06T09:30:55.460Z,2.13
2022-10-06T09:33:43.097Z,2.08
2022-10-06T09:36:30.141Z,2.70
2022-10-06T09:39:27.050Z,2.22
2022-10-06T09:42:17.091Z,2.17
2022-10-06T09:45:06.788Z,2.40
2022-10-06T09:47:55.208Z,2.10
2022-10-06T09:50:42.631Z,2.47
2022-10-06T09:53:30.875Z,2.10
2022-10-06T09:56:20.265Z,2.00
2022-10-06T09:59:17.617Z,2.17
2022-10-06T10:02:05.283Z,2.10
2022-10-06T10:04:56.183Z,2.20
2022-10-06T10:07:43.621Z,2.30
2022-10-06T10:10:30.592Z,2.20
2022-10-06T10:13:24.270Z,2.05
2022-10-06T10:16:19.356Z,2.40
2022-10-06T10:19:09.870Z,2.00
2022-10-06T10:21:58.272Z,2.05
2022-10-06T10:24:55.386Z,2.53
2022-10-06T10:27:55.517Z,2.65
2022-10-06T10:30:51.127Z,2.20
2022-10-06T10:33:54.170Z,2.92
2022-10-06T10:36:55.526Z,2.17
2022-10-06T10:39:49.136Z,2.83
2022-10-06T10:42:42.397Z,2.55
2022-10-06T10:45:34.131Z,2.20
2022-10-06T10:48:29.883Z,2.30
2022-10-06T10:51:24.341Z,2.60
2022-10-06T10:54:15.437Z,2.90
2022-10-06T10:57:04.826Z,2.47
2022-10-06T11:00:00.899Z,2.75
2022-10-06T11:02:48.468Z,2.78
2022-10-06T11:06:00.318Z,2.42
2022-10-06T11:08:55.858Z,2.70
2022-10-06T11:11:56.288Z,2.63
2022-10-06T11:14:53.487Z,2.70
2022-10-06T11:17:45.273Z,2.40
2022-10-06T11:20:44.120Z,2.20
2022-10-06T11:23:44.968Z,2.30
2022-10-06T11:27:08.334Z,2.35
2022-10-06T11:30:06.542Z,2.15
2022-10-06T11:33:03.476Z,2.38
2022-10-06T11:35:50.641Z,2.60
2022-10-06T11:38:43.291Z,2.50
2022-10-06T11:41:35.833Z,3.08
2022-10-06T11:44:32.634Z,2.55
2022-10-06T11:47:34.833Z,2.70
2022-10-06T11:50:34.751Z,2.63
2022-10-06T11:53:38.277Z,2.33
2022-10-06T11:56:38.858Z,2.50
2022-10-06T11:59:28.536Z,2.35
2022-10-06T12:02:38.611Z,2.60
2022-10-06T12:05:55.843Z,2.58
2022-10-06T12:08:42.363Z,2.13
2022-10-06T12:11:40.379Z,2.30
2022-10-06T12:17:50.639Z,2.47
2022-10-06T12:20:53.790Z,2.30
2022-10-06T12:23:49.795Z,2.33
2022-10-06T12:26:49.500Z,2.33
2022-10-06T12:29:46.075Z,2.50
2022-10-06T12:32:50.423Z,2.58
2022-10-06T12:35:40.026Z,2.30
2022-10-06T12:38:44.307Z,1.95
2022-10-06T12:41:55.187Z,2.60
2022-10-06T12:44:49.318Z,2.25
2022-10-06T12:47:39.896Z,2.30
2022-10-06T12:50:29.343Z,2.58
2022-10-06T12:53:21.980Z,2.45
2022-10-06T12:56:27.249Z,2.30
2022-10-06T12:59:24.444Z,1.98
2022-10-06T13:02:15.988Z,2.47
2022-10-06T13:05:04.635Z,2.40
2022-10-06T13:08:00.523Z,2.70
2022-10-06T13:10:47.196Z,2.17
2022-10-06T13:13:36.967Z,2.45
2022-10-06T13:16:26.585Z,2.55
2022-10-06T13:19:18.814Z,2.30
2022-10-06T13:22:06.018Z,2.60
2022-10-06T13:25:01.275Z,2.53
2022-10-06T13:27:51.847Z,2.30
2022-10-06T13:30:39.170Z,2.30
2022-10-06T13:33:30.005Z,2.50
2022-10-06T13:36:17.707Z,2.30
2022-10-06T13:39:06.228Z,2.15
2022-10-06T13:41:57.462Z,2.40
2022-10-06T13:44:49.602Z,2.40
2022-10-06T13:47:36.663Z,2.40
2022-10-06T13:50:23.862Z,2.78
2022-10-06T13:53:25.882Z,2.17
2022-10-06T13:56:43.749Z,2.80
2022-10-06T13:59:38.722Z,2.80
2022-10-06T14:02:32.508Z,2.40
2022-10-06T14:05:36.606Z,2.13
2022-10-06T14:08:25.561Z,2.40
2022-10-06T14:11:13.026Z,2.10
2022-10-06T14:14:02.238Z,2.17
2022-10-06T14:16:53.901Z,2.08
2022-10-06T14:19:41.467Z,2.35
2022-10-06T14:22:34.399Z,2.00
2022-10-06T14:25:22.348Z,2.45
2022-10-06T14:28:09.156Z,2.40
2022-10-06T14:30:57.695Z,1.92
2022-10-06T14:33:47.192Z,1.88
2022-10-06T14:36:36.891Z,1.98
2022-10-06T14:39:23.951Z,1.98
2022-10-06T14:42:10.927Z,2.25
2022-10-06T14:44:58.362Z,1.80
2022-10-06T14:47:46.527Z,1.80
2022-10-06T14:50:35.595Z,2.05
2022-10-06T14:53:22.964Z,2.47
2022-10-06T14:56:14.259Z,1.95
2022-10-06T14:59:03.991Z,2.25
2022-10-06T15:01:50.926Z,2.30
2022-10-06T15:04:37.896Z,2.17
2022-10-06T15:07:43.462Z,2.30
2022-10-06T15:10:30.928Z,2.17
2022-10-06T15:13:18.630Z,2.03
2022-10-06T15:16:05.796Z,2.38
2022-10-06T15:18:53.270Z,1.90
2022-10-06T15:21:41.138Z,2.30
2022-10-06T15:24:29.395Z,1.75
2022-10-06T15:27:33.765Z,2.08
2022-10-06T15:30:21.076Z,2.08
2022-10-06T15:33:08.086Z,1.80
2022-10-06T15:36:18.456Z,2.30
2022-10-06T15:39:07.693Z,2.08
2022-10-06T15:41:56.301Z,2.05
2022-10-06T15:44:43.326Z,2.20
2022-10-06T15:47:30.553Z,2.00
2022-10-06T15:50:19.092Z,1.83
2022-10-06T15:53:06.227Z,1.77
2022-10-06T15:55:53.873Z,2.13
2022-10-06T15:58:42.356Z,2.25
2022-10-06T16:01:40.931Z,2.10
2022-10-06T16:04:34.742Z,1.85
2022-10-06T16:07:22.060Z,2.17
2022-10-06T16:10:10.056Z,2.17
2022-10-06T16:12:56.887Z,1.90
2022-10-06T16:15:44.982Z,1.90
2022-10-06T16:18:32.999Z,2.17
2022-10-06T16:21:19.851Z,1.92
2022-10-06T16:24:07.170Z,2.20
2022-10-06T16:26:54.446Z,2.30
2022-10-06T16:29:42.141Z,1.80
2022-10-06T16:32:30.744Z,2.13
2022-10-06T16:35:18.594Z,1.80
2022-10-06T16:38:05.622Z,2.10
2022-10-06T16:40:57.195Z,1.85
2022-10-06T16:43:46.057Z,1.97
2022-10-06T16:46:33.673Z,1.70
2022-10-06T16:49:21.827Z,1.85
2022-10-06T16:52:08.738Z,1.90
2022-10-06T16:54:56.228Z,1.90
2022-10-06T16:57:43.306Z,1.70
2022-10-06T17:00:30.377Z,2.17
2022-10-06T17:03:17.396Z,1.83
2022-10-06T17:06:08.608Z,2.20
2022-10-06T17:08:56.589Z,1.60
2022-10-06T17:11:45.180Z,2.10
2022-10-06T17:14:34.711Z,1.80
2022-10-06T17:17:21.717Z,1.67
2022-10-06T17:20:09.461Z,1.93
2022-10-06T17:22:58.493Z,1.80
2022-10-06T17:25:45.208Z,2.03
2022-10-06T17:28:32.512Z,1.90
2022-10-06T17:31:21.558Z,1.63
2022-10-06T17:34:12.132Z,1.90
2022-10-06T17:36:59.403Z,1.80
2022-10-06T17:39:47.692Z,1.83
2022-10-06T17:42:34.452Z,1.60
2022-10-06T17:45:21.595Z,1.70
2022-10-06T17:48:08.307Z,1.77
2022-10-06T17:50:59.782Z,1.63
2022-10-06T17:53:49.094Z,1.80
2022-10-06T17:56:37.609Z,1.90
2022-10-06T17:59:28.196Z,2.10
2022-10-06T18:02:15.082Z,1.73
2022-10-06T18:05:01.837Z,2.07
2022-10-06T18:07:48.943Z,1.80
2022-10-06T18:10:56.705Z,2.17
2022-10-06T18:13:49.568Z,2.00
2022-10-06T18:16:39.732Z,1.70
2022-10-06T18:19:29.836Z,1.80
2022-10-06T18:22:17.741Z,2.00
2022-10-06T18:25:04.711Z,1.90
2022-10-06T18:27:51.785Z,2.10
2022-10-06T18:30:40.442Z,1.87
2022-10-06T18:36:35.444Z,1.60
2022-10-06T18:39:22.763Z,1.70
2022-10-06T18:42:11.407Z,1.67
2022-10-06T18:45:15.658Z,1.60
2022-10-06T18:48:21.266Z,1.83
2022-10-06T18:51:08.203Z,1.60
2022-10-06T18:53:55.922Z,1.77
2022-10-06T18:56:49.254Z,1.70
2022-10-06T18:59:37.770Z,2.70
2022-10-06T19:02:26.386Z,1.60
2022-10-06T19:05:15.172Z,1.50
2022-10-06T19:08:02.628Z,1.90
2022-10-06T19:11:03.229Z,2.33
2022-10-06T19:13:52.197Z,1.53
2022-10-06T19:16:38.886Z,2.10
2022-10-06T19:19:27.170Z,2.03
2022-10-06T19:22:16.271Z,2.17
2022-10-06T19:25:03.000Z,2.13
2022-10-06T19:27:51.366Z,1.80
2022-10-06T19:30:38.350Z,2.00
2022-10-06T19:33:25.459Z,1.83
2022-10-06T19:36:12.262Z,1.80
2022-10-06T19:39:02.773Z,2.00
2022-10-06T19:42:07.413Z,1.80
2022-10-06T19:44:54.402Z,1.93
2022-10-06T19:47:41.871Z,1.90
2022-10-06T19:50:29.429Z,2.30
2022-10-06T19:53:16.887Z,1.70
2022-10-06T19:56:05.931Z,1.93
2022-10-06T19:58:53.830Z,2.00
2022-10-06T20:01:42.395Z,2.00
2022-10-06T20:04:29.489Z,1.97
2022-10-06T20:07:16.379Z,1.73
2022-10-06T20:10:04.339Z,1.70
2022-10-06T20:12:52.573Z,1.50
2022-10-06T20:15:39.816Z,1.53
2022-10-06T20:18:26.939Z,1.60
2022-10-06T20:21:16.554Z,2.10
2022-10-06T20:24:05.781Z,1.80
2022-10-06T20:26:54.405Z,1.80
2022-10-06T20:29:42.773Z,1.90
2022-10-06T20:32:29.576Z,1.80
2022-10-06T20:35:16.712Z,2.00
2022-10-06T20:38:08.843Z,2.23
2022-10-06T20:40:54.941Z,2.10
2022-10-06T20:43:43.310Z,2.20
2022-10-06T20:46:33.900Z,1.90
2022-10-06T20:49:20.730Z,2.10
2022-10-06T20:52:08.872Z,2.30
2022-10-06T20:54:55.742Z,2.50
2022-10-06T20:57:42.678Z,2.10
2022-10-06T21:00:29.555Z,2.20
2022-10-06T21:03:18.332Z,2.07
2022-10-06T21:06:05.695Z,2.00
2022-10-06T21:08:52.950Z,2.00
2022-10-06T21:11:40.101Z,2.10
2022-10-06T21:14:27.209Z,2.40
2022-10-06T21:17:14.326Z,2.47
2022-10-06T21:20:02.709Z,2.30
2022-10-06T21:22:49.886Z,1.97
2022-10-06T21:25:38.435Z,2.13
2022-10-06T21:28:25.569Z,2.30
2022-10-06T21:31:14.284Z,1.90
2022-10-06T21:34:02.471Z,2.00
2022-10-06T21:36:51.320Z,1.87
2022-10-06T21:39:38.486Z,2.20
2022-10-06T21:42:25.605Z,2.33
2022-10-06T21:45:12.980Z,2.50
2022-10-06T21:47:59.800Z,1.97
2022-10-06T21:50:53.365Z,2.00
2022-10-06T21:53:42.258Z,2.20
2022-10-06T21:56:31.717Z,2.23
2022-10-06T21:59:18.755Z,2.23
2022-10-06T22:02:06.342Z,1.97
2022-10-06T22:04:53.231Z,2.20
2022-10-06T22:07:40.180Z,2.20
2022-10-06T22:10:28.415Z,2.90
2022-10-06T22:13:15.020Z,2.07
2022-10-06T22:16:05.458Z,2.33
2022-10-06T22:18:52.833Z,2.40
2022-10-06T22:21:41.597Z,2.40
2022-10-06T22:24:28.327Z,2.07
2022-10-06T22:27:16.925Z,2.57
2022-10-06T22:30:04.268Z,2.87
2022-10-06T22:32:51.404Z,2.10
2022-10-06T22:35:38.426Z,2.20
2022-10-06T22:38:25.450Z,2.60
2022-10-06T22:41:14.593Z,2.23
2022-10-06T22:44:03.275Z,2.10
2022-10-06T22:46:50.371Z,2.50
2022-10-06T22:49:37.197Z,2.13
2022-10-06T22:52:24.381Z,2.30
2022-10-06T22:55:11.298Z,2.90
2022-10-06T22:57:58.413Z,2.63
2022-10-06T23:00:46.965Z,2.73
2022-10-06T23:03:33.850Z,2.53
2022-10-06T23:06:20.524Z,2.50
2022-10-06T23:09:08.053Z,2.70
2022-10-06T23:11:55.171Z,2.47
2022-10-06T23:14:42.219Z,2.87
2022-10-06T23:17:30.458Z,2.40
2022-10-06T23:20:17.984Z,2.37
2022-10-06T23:23:04.733Z,2.73
2022-10-06T23:25:51.761Z,2.80
2022-10-06T23:28:39.488Z,2.70
2022-10-06T23:31:26.954Z,2.80
2022-10-06T23:34:15.210Z,3.80
2022-10-06T23:37:02.314Z,2.83
2022-10-06T23:39:49.287Z,2.90
2022-10-06T23:42:36.064Z,2.73
2022-10-06T23:45:23.135Z,2.53
2022-10-06T23:48:10.140Z,2.10
2022-10-06T23:51:00.928Z,2.63
2022-10-06T23:53:48.162Z,2.77
2022-10-06T23:56:35.472Z,2.73
2022-10-06T23:59:23.050Z,2.83
